Terminal Aerodrome Forecast
Issued by NWS

Home | Current Version | Previous Version | Text Only | Print | Product List | Glossary On
Versions: 1 2 3 4 5 6 7 8 9 10 11 12 13 14 15 16 17 18 19 20 21 22 23 24 25
000
FTUS43 KMKX 211739
TAFENW
TAF
KENW 211739Z 2118/2218 17006KT P6SM SCT035 BKN200
     FM212200 15008KT P6SM VCTS SCT035CB BKN200
      TEMPO 2200/2203 4SM TSRA BKN035CB
     FM220300 VRB03KT P6SM SHRA VCTS SCT035CB OVC060 WS020/23035KT
     FM220700 18009KT P6SM SHRA OVC060
     FM220900 18005KT 5SM SHRA OVC060
     FM221200 24009KT P6SM BKN045=

USA.gov is the U.S. government's official web portal to all federal, state and local government web resources and services.